createdAt,value
2019-05-17T00:03:09.273Z,53.82
2019-05-17T00:07:16.703Z,54.24
2019-05-17T00:11:22.523Z,53.40
2019-05-17T00:15:28.257Z,53.93
2019-05-17T00:19:33.962Z,54.96
2019-05-17T00:23:40.632Z,53.59
2019-05-17T00:27:47.431Z,54.49
2019-05-17T00:31:53.704Z,54.66
2019-05-17T00:35:59.397Z,54.39
2019-05-17T00:40:07.694Z,53.32
2019-05-17T00:44:13.371Z,54.11
2019-05-17T00:48:19.070Z,54.31
2019-05-17T00:52:27.164Z,52.92
2019-05-17T00:56:32.119Z,53.53
2019-05-17T01:00:38.848Z,54.04
2019-05-17T01:04:44.535Z,55.25
2019-05-17T01:09:01.030Z,54.10
2019-05-17T01:12:57.706Z,55.05
2019-05-17T01:17:03.495Z,55.02
2019-05-17T01:21:09.331Z,54.63
2019-05-17T01:25:17.216Z,56.19
2019-05-17T01:29:22.635Z,55.68
2019-05-17T01:33:28.492Z,55.05
2019-05-17T01:37:36.711Z,55.71
2019-05-17T01:41:41.556Z,55.02
2019-05-17T01:45:48.059Z,56.00
2019-05-17T01:49:53.921Z,57.13
2019-05-17T01:53:59.596Z,56.20
2019-05-17T01:58:07.412Z,57.45
2019-05-17T02:02:16.312Z,56.30
2019-05-17T02:06:21.727Z,56.11
2019-05-17T02:10:27.413Z,56.21
2019-05-17T02:14:33.082Z,57.81
2019-05-17T02:18:38.788Z,55.70
2019-05-17T02:22:47.082Z,57.06
2019-05-17T02:26:51.925Z,57.96
2019-05-17T02:30:57.945Z,57.21
2019-05-17T02:35:04.446Z,55.53
2019-05-17T02:39:13.132Z,54.80
2019-05-17T02:43:17.612Z,55.95
2019-05-17T02:47:23.292Z,55.63
2019-05-17T02:51:32.117Z,57.09
2019-05-17T02:55:36.423Z,55.43
2019-05-17T02:59:43.316Z,56.24
2019-05-17T03:03:49.145Z,56.66
2019-05-17T03:07:54.815Z,55.91
2019-05-17T03:12:03.290Z,55.94
2019-05-17T03:16:07.903Z,56.61
2019-05-17T03:20:15.314Z,56.74
2019-05-17T03:24:22.631Z,56.69
2019-05-17T03:28:28.538Z,57.68
2019-05-17T03:32:36.477Z,57.23
2019-05-17T03:36:46.966Z,59.31
2019-05-17T03:41:18.463Z,56.87
2019-05-17T03:45:02.631Z,56.47
2019-05-17T03:49:06.880Z,57.89
2019-05-17T03:53:13.284Z,57.76
2019-05-17T03:57:19.119Z,57.64
2019-05-17T04:01:24.894Z,57.33
2019-05-17T04:05:33.300Z,59.10
2019-05-17T04:09:38.050Z,56.16
2019-05-17T04:13:43.724Z,56.75
2019-05-17T04:17:52.690Z,58.16
2019-05-17T04:21:56.790Z,57.20
2019-05-17T04:26:04.339Z,55.98
2019-05-17T04:30:12.587Z,55.32
2019-05-17T04:34:18.050Z,56.01
2019-05-17T04:38:24.962Z,57.42
2019-05-17T04:42:33.162Z,57.20
2019-05-17T04:46:43.063Z,56.54
2019-05-17T04:50:48.788Z,56.79
2019-05-17T04:54:54.487Z,54.89
2019-05-17T04:59:03.246Z,55.79
2019-05-17T05:03:07.864Z,55.48
2019-05-17T05:07:13.933Z,55.81
2019-05-17T05:11:19.636Z,55.04
2019-05-17T05:15:44.472Z,54.08
2019-05-17T05:19:52.971Z,52.83
2019-05-17T05:23:57.864Z,53.08
2019-05-17T05:28:04.606Z,53.91
2019-05-17T05:32:11.805Z,52.88
2019-05-17T05:36:17.587Z,54.45
2019-05-17T05:40:23.257Z,52.85
2019-05-17T05:44:28.959Z,53.50
2019-05-17T05:48:34.637Z,52.41
2019-05-17T05:52:42.409Z,54.36
2019-05-17T05:56:47.828Z,51.99
2019-05-17T06:00:53.641Z,52.17
2019-05-17T06:05:01.751Z,51.81
2019-05-17T06:09:11.836Z,50.93
2019-05-17T06:13:16.961Z,49.57
2019-05-17T06:17:22.643Z,49.28
2019-05-17T06:21:29.020Z,48.94
2019-05-17T06:25:34.704Z,49.71
2019-05-17T06:29:41.506Z,47.88
2019-05-17T06:33:47.410Z,47.62
2019-05-17T06:37:53.612Z,47.06
2019-05-17T06:41:59.368Z,47.03
2019-05-17T06:46:05.179Z,46.12
2019-05-17T06:50:13.929Z,45.78
2019-05-17T06:54:18.818Z,45.18
2019-05-17T06:58:24.519Z,44.63
2019-05-17T07:02:30.816Z,45.40
2019-05-17T07:06:36.933Z,44.23
2019-05-17T07:10:42.703Z,42.70
2019-05-17T07:14:50.561Z,42.75
2019-05-17T07:18:55.795Z,42.25
2019-05-17T07:23:01.472Z,41.89
2019-05-17T07:27:07.225Z,41.34
2019-05-17T07:31:12.922Z,40.38
2019-05-17T07:35:19.800Z,39.75
2019-05-17T07:39:25.503Z,39.01
2019-05-17T07:43:31.278Z,38.97
2019-05-17T07:47:36.959Z,38.75
2019-05-17T07:51:42.644Z,37.96
2019-05-17T07:55:50.589Z,36.66
2019-05-17T07:59:55.818Z,37.33
2019-05-17T08:04:01.921Z,36.44
2019-05-17T08:08:09.655Z,36.09
2019-05-17T08:12:15.181Z,35.16
2019-05-17T08:16:20.903Z,34.86
2019-05-17T08:20:29.836Z,34.99
2019-05-17T08:24:35.109Z,34.03
2019-05-17T08:28:40.825Z,34.05
2019-05-17T08:32:46.607Z,33.41
2019-05-17T08:36:52.299Z,33.71
2019-05-17T08:41:00.526Z,33.73
2019-05-17T08:45:09.528Z,32.21
2019-05-17T08:49:14.855Z,32.31
2019-05-17T08:53:20.515Z,31.65
2019-05-17T08:57:26.513Z,31.70
2019-05-17T09:01:32.204Z,30.23
2019-05-17T09:05:38.043Z,31.17
2019-05-17T09:09:44.271Z,29.62
2019-05-17T09:13:57.907Z,29.23
2019-05-17T09:17:57.327Z,29.33
2019-05-17T09:22:04.069Z,28.46
2019-05-17T09:26:10.133Z,28.35
2019-05-17T09:30:16.435Z,27.94
2019-05-17T09:34:22.105Z,27.51
2019-05-17T09:38:29.556Z,27.61
2019-05-17T09:42:35.411Z,26.70
2019-05-17T09:46:41.088Z,26.15
2019-05-17T09:50:46.783Z,25.60
2019-05-17T09:54:52.443Z,25.42
2019-05-17T09:59:00.233Z,24.91
2019-05-17T10:03:05.593Z,25.42
2019-05-17T10:07:11.324Z,25.02
2019-05-17T10:11:20.092Z,24.34
2019-05-17T10:15:25.556Z,24.21
2019-05-17T10:19:31.756Z,24.38
2019-05-17T10:23:37.420Z,24.45
2019-05-17T10:27:43.108Z,23.95
2019-05-17T10:31:50.466Z,23.26
2019-05-17T10:35:56.279Z,22.83
2019-05-17T10:40:11.522Z,22.75
2019-05-17T10:44:19.825Z,21.97
2019-05-17T10:48:24.835Z,24.74
2019-05-17T10:52:30.510Z,23.07
2019-05-17T10:56:36.567Z,23.64
2019-05-17T11:00:42.397Z,25.05
2019-05-17T11:04:50.386Z,24.21
2019-05-17T11:08:55.517Z,22.51
2019-05-17T11:13:01.308Z,21.53
2019-05-17T11:17:07.015Z,21.24
2019-05-17T11:21:13.016Z,20.87
2019-05-17T11:25:19.156Z,19.78
2019-05-17T11:29:24.848Z,20.24
2019-05-17T11:33:30.515Z,20.28
2019-05-17T11:37:36.214Z,20.06
2019-05-17T11:41:41.895Z,20.05
2019-05-17T11:45:47.745Z,20.29
2019-05-17T11:49:53.489Z,19.57
2019-05-17T11:53:59.148Z,19.15
2019-05-17T11:58:05.495Z,19.19
2019-05-17T12:02:11.192Z,19.37
2019-05-17T12:06:16.941Z,19.19
2019-05-17T12:10:22.821Z,19.59
2019-05-17T12:14:29.628Z,18.79
2019-05-17T12:18:35.368Z,18.46
2019-05-17T12:22:41.839Z,18.08
2019-05-17T12:26:47.683Z,20.16
2019-05-17T12:30:53.410Z,19.30
2019-05-17T12:34:59.082Z,18.36
2019-05-17T12:39:06.777Z,18.56
2019-05-17T12:43:12.517Z,19.72
2019-05-17T12:47:18.246Z,21.13
2019-05-17T12:51:23.937Z,22.47
2019-05-17T12:55:29.672Z,24.26
2019-05-17T12:59:36.331Z,23.74
2019-05-17T13:03:42.006Z,23.42
2019-05-17T13:07:47.977Z,23.19
2019-05-17T13:11:53.647Z,25.00
2019-05-17T13:15:59.419Z,24.18
2019-05-17T13:20:10.268Z,22.29
2019-05-17T13:24:16.027Z,21.08
2019-05-17T13:28:21.702Z,21.10
2019-05-17T13:32:27.453Z,20.47
2019-05-17T13:36:33.204Z,20.50
2019-05-17T13:40:40.062Z,20.50
2019-05-17T13:44:46.065Z,20.82
2019-05-17T13:48:51.754Z,22.70
2019-05-17T13:52:57.469Z,23.77
2019-05-17T13:57:03.196Z,25.27
2019-05-17T14:01:08.928Z,26.32
2019-05-17T14:05:15.690Z,26.77
2019-05-17T14:09:21.368Z,26.00
2019-05-17T14:13:27.060Z,27.02
2019-05-17T14:17:32.742Z,27.77
2019-05-17T14:21:38.443Z,27.85
2019-05-17T14:25:44.102Z,28.18
2019-05-17T14:29:49.806Z,28.11
2019-05-17T14:33:55.507Z,28.15
2019-05-17T14:38:01.182Z,27.69
2019-05-17T14:46:04.617Z,28.85
2019-05-17T14:50:10.904Z,28.19
2019-05-17T14:54:16.591Z,27.40
2019-05-17T14:58:22.287Z,27.22
2019-05-17T15:02:28.062Z,27.92
2019-05-17T15:06:34.074Z,27.68
2019-05-17T15:10:39.813Z,27.17
2019-05-17T15:14:45.611Z,27.08
2019-05-17T15:18:51.328Z,27.85
2019-05-17T15:22:57.200Z,28.56
2019-05-17T15:27:05.783Z,34.60
2019-05-17T15:31:10.264Z,36.75
2019-05-17T15:35:15.990Z,38.28
2019-05-17T15:39:21.748Z,40.94
2019-05-17T15:43:27.418Z,42.57
2019-05-17T15:47:33.122Z,42.07
2019-05-17T15:51:38.799Z,41.78
2019-05-17T15:55:44.464Z,41.66
2019-05-17T15:59:50.168Z,41.30
2019-05-17T16:03:55.913Z,41.64
2019-05-17T16:08:01.575Z,41.34
2019-05-17T16:12:07.328Z,41.08
2019-05-17T16:16:13.004Z,40.57
2019-05-17T16:20:19.051Z,40.16
2019-05-17T16:24:24.781Z,39.89
2019-05-17T16:28:30.516Z,40.13
2019-05-17T16:32:36.161Z,39.63
2019-05-17T16:36:41.819Z,39.91
2019-05-17T16:40:47.519Z,40.98
2019-05-17T16:44:53.273Z,42.00
2019-05-17T16:48:58.941Z,42.74
2019-05-17T16:53:06.546Z,42.89
2019-05-17T16:57:12.435Z,43.04
2019-05-17T17:01:18.267Z,44.23
2019-05-17T17:05:24.138Z,44.09
2019-05-17T17:09:29.882Z,44.08
2019-05-17T17:13:35.644Z,45.31
2019-05-17T17:17:41.318Z,43.02
2019-05-17T17:21:47.029Z,44.11
2019-05-17T17:25:52.686Z,45.42
2019-05-17T17:29:58.353Z,46.23
2019-05-17T17:34:04.235Z,44.62
2019-05-17T17:38:10.547Z,43.77
2019-05-17T17:42:16.219Z,43.90
2019-05-17T17:46:22.370Z,43.81
2019-05-17T17:50:28.071Z,43.84
2019-05-17T17:54:33.845Z,43.81
2019-05-17T17:58:39.514Z,44.25
2019-05-17T18:02:45.316Z,44.20
2019-05-17T18:06:51.014Z,44.79
2019-05-17T18:10:56.715Z,44.57
2019-05-17T18:15:05.930Z,44.22
2019-05-17T18:19:10.386Z,43.47
2019-05-17T18:23:20.932Z,43.33
2019-05-17T18:27:23.787Z,43.50
2019-05-17T18:31:29.584Z,43.40
2019-05-17T18:35:36.338Z,43.18
2019-05-17T18:39:42.031Z,42.87
2019-05-17T18:43:47.729Z,42.69
2019-05-17T18:47:53.559Z,43.09
2019-05-17T18:51:59.418Z,43.17
2019-05-17T18:56:05.108Z,43.58
2019-05-17T19:00:11.555Z,43.69
2019-05-17T19:04:17.246Z,43.75
2019-05-17T19:08:22.953Z,43.67
2019-05-17T19:12:28.638Z,43.56
2019-05-17T19:16:34.346Z,43.94
2019-05-17T19:20:40.195Z,43.99
2019-05-17T19:24:45.894Z,43.19
2019-05-17T19:28:51.573Z,44.80
2019-05-17T19:32:58.250Z,44.82
2019-05-17T19:37:04.010Z,44.28
2019-05-17T19:41:10.692Z,44.81
2019-05-17T19:45:16.831Z,45.87
2019-05-17T19:49:22.569Z,45.21
2019-05-17T19:53:28.254Z,45.72
2019-05-17T19:57:33.986Z,46.67
2019-05-17T20:01:39.726Z,47.51
2019-05-17T20:05:45.424Z,48.05
2019-05-17T20:09:51.087Z,47.38
2019-05-17T20:13:56.770Z,46.41
2019-05-17T20:18:03.620Z,46.25
2019-05-17T20:22:10.076Z,45.79
2019-05-17T20:26:15.797Z,45.62
2019-05-17T20:30:21.805Z,45.91
2019-05-17T20:34:27.473Z,45.70
2019-05-17T20:38:33.303Z,45.72
2019-05-17T20:42:38.973Z,46.14
2019-05-17T20:46:44.651Z,46.21
2019-05-17T20:50:50.370Z,46.01
2019-05-17T20:54:56.033Z,46.12
2019-05-17T20:59:01.717Z,47.15
2019-05-17T21:03:07.395Z,46.24
2019-05-17T21:07:13.090Z,45.61
2019-05-17T21:11:18.819Z,46.10
2019-05-17T21:15:24.536Z,46.83
2019-05-17T21:19:30.198Z,48.45
2019-05-17T21:23:35.895Z,49.17
2019-05-17T21:27:41.923Z,51.35
2019-05-17T21:31:47.580Z,51.19
2019-05-17T21:35:53.402Z,50.17
2019-05-17T21:40:00.060Z,49.76
2019-05-17T21:44:05.944Z,48.63
2019-05-17T21:48:11.638Z,49.02
2019-05-17T21:52:17.309Z,48.12
2019-05-17T21:56:23.034Z,49.36
2019-05-17T22:00:54.305Z,49.33
2019-05-17T22:05:00.056Z,49.91
2019-05-17T22:09:08.054Z,49.74
2019-05-17T22:13:13.732Z,49.07
2019-05-17T22:17:19.409Z,49.25
2019-05-17T22:21:25.118Z,49.17
2019-05-17T22:25:30.822Z,49.84
2019-05-17T22:29:36.513Z,49.94
2019-05-17T22:33:42.228Z,50.15
2019-05-17T22:37:47.982Z,50.27
2019-05-17T22:41:53.658Z,50.21
2019-05-17T22:45:59.383Z,49.99
2019-05-17T22:50:06.382Z,50.65
2019-05-17T22:54:12.049Z,50.92
2019-05-17T22:58:17.740Z,51.22
2019-05-17T23:02:23.442Z,51.40
2019-05-17T23:06:29.109Z,51.30
2019-05-17T23:10:35.235Z,50.88
2019-05-17T23:14:40.976Z,51.50
2019-05-17T23:19:05.824Z,51.31
2019-05-17T23:23:11.531Z,50.99
2019-05-17T23:27:17.208Z,50.70
2019-05-17T23:31:23.086Z,50.92
2019-05-17T23:35:28.764Z,50.91
2019-05-17T23:39:34.518Z,50.91
2019-05-17T23:43:40.219Z,51.20
2019-05-17T23:47:45.900Z,50.58
2019-05-17T23:51:51.614Z,50.22
2019-05-17T23:55:57.284Z,50.48
